This is the latest recevied weather packets stored in our database for station/object KC3QLX. If no packets are shown the sender has not sent any weather packets the latest 10 day(s).
| Time | Temp. | Humidity | Pressure | Rain* | Wind** | Luminosity | Snow |
|---|---|---|---|---|---|---|---|
| 1778022322 | 25.56° C | 39% | 1007.3 hPa | 0 mm | - | 51 W/m² | - |
| 1778022018 | 25.56° C | 38% | 1007.1 hPa | 0 mm | - | 52 W/m² | - |
| 1778021715 | 25.56° C | 39% | 1006.9 hPa | 0 mm | - | 54 W/m² | - |
| 1778021411 | 25.56° C | 40% | 1007.1 hPa | 0 mm | - | 57 W/m² | - |
| 1778021109 | 25.56° C | 38% | 1007.1 hPa | 0 mm | - | 60 W/m² | - |
| 1778020806 | 25.56° C | 38% | 1007 hPa | 0 mm | - | 65 W/m² | - |
| 1778020502 | 26.11° C | 39% | 1007 hPa | 0 mm | - | 62 W/m² | - |
| 1778020198 | 26.11° C | 38% | 1006.9 hPa | 0 mm | - | 76 W/m² | - |
| 1778019895 | 26.11° C | 37% | 1007.1 hPa | 0 mm | - | 48 W/m² | - |
| 1778019591 | 26.67° C | 37% | 1006.8 hPa | 0 mm | - | 68 W/m² | - |
| 1778019288 | 27.22° C | 36% | 1007.1 hPa | 0 mm | - | 144 W/m² | - |
| 1778018985 | 26.67° C | 36% | 1007.1 hPa | 0 mm | - | 211 W/m² | - |
| 1778018682 | 26.67° C | 39% | 1007 hPa | 0 mm | - | 187 W/m² | - |
| 1778018380 | 26.67° C | 36% | 1006.7 hPa | 0 mm | - | 87 W/m² | - |
| 1778018078 | 27.22° C | 36% | 1006.9 hPa | 0 mm | - | 213 W/m² | - |
| 1778017775 | 26.67° C | 37% | 1006.8 hPa | 0 mm | - | 220 W/m² | - |
| 1778017473 | 26.67° C | 37% | 1006.6 hPa | 0 mm | - | 206 W/m² | - |
| 1778017170 | 27.22° C | 35% | 1006.7 hPa | 0 mm | - | 260 W/m² | - |
| 1778016868 | 26.67° C | 36% | 1006.9 hPa | 0 mm | - | 295 W/m² | - |
| 1778016564 | 26.67° C | 38% | 1006.8 hPa | 0 mm | - | 156 W/m² | - |
| 1778016261 | 27.22° C | 37% | 1006.7 hPa | 0 mm | - | 127 W/m² | - |
| 1778015957 | 27.22° C | 37% | 1006.8 hPa | 0 mm | - | 262 W/m² | - |
| 1778015655 | 27.22° C | 37% | 1006.9 hPa | 0 mm | - | 301 W/m² | - |
| 1778015351 | 27.22° C | 36% | 1006.8 hPa | 0 mm | - | 330 W/m² | - |
| 1778015048 | 26.67° C | 38% | 1006.8 hPa | 0 mm | - | 393 W/m² | - |
* Rain latest hour (hover to see other rain measurements)
** Current wind speed in m/s (hover to see current wind gust speed)